Terminal Aerodrome Forecast
Issued by NWS Louisville, KY

Home | Current Version | Previous Version | Text Only | Print | Product List | Glossary On
Versions: 1 2 3 4 5 6 7 8 9 10 11 12 13 14 15
000
FTUS43 KLMK 312300
TAFLEX
TAF
KLEX 312321Z 0100/0124 31012G20KT P6SM VCSH BKN028
     FM010400 32012G20KT 6SM -RASN BR BKN022
     FM010600 33013G21KT 4SM -SN BR OVC015
     FM011100 34012G20KT P6SM OVC017
     FM011500 34012G20KT P6SM OVC027=

USA.gov is the U.S. government's official web portal to all federal, state and local government web resources and services.